Time;durP1;ratioP1;P1;durP2;ratioP2;P2;SDS_P1;SDS_P2;PMS_P1;PMS_P2;Temp;Humidity;BMP_temperature;BMP_pressure;BME280_temperature;BME280_humidity;BME280_pressure;Samples;Min_cycle;Max_cycle;Signal;HPM_P1;HPM_P2
2022/02/19 00:02:14;;;;;;;22.22;14.78;;;;;;;1.90;85.81;99117.50;1587060;88;21097;-84
2022/02/19 00:04:41;;;;;;;21.27;14.05;;;;;;;1.87;85.88;99102.80;1609485;88;21051;-83
2022/02/19 00:07:07;;;;;;;23.47;16.10;;;;;;;1.82;85.93;99105.30;1616375;88;21167;-87
2022/02/19 00:09:35;;;;;;;28.83;16.77;;;;;;;1.79;86.10;99108.34;1618889;88;21043;-82
2022/02/19 00:12:02;;;;;;;22.52;13.90;;;;;;;1.77;86.23;99103.78;1614683;88;21118;-85
2022/02/19 00:14:29;;;;;;;21.10;12.78;;;;;;;1.74;86.36;99110.29;1588733;88;21693;-85
2022/02/19 00:16:55;;;;;;;21.73;13.68;;;;;;;1.69;86.54;99104.80;1608363;88;21030;-77
2022/02/19 00:19:22;;;;;;;17.95;13.80;;;;;;;1.65;86.67;99106.23;1608275;88;21578;-83
2022/02/19 00:21:48;;;;;;;21.42;13.90;;;;;;;1.62;86.91;99107.16;1606975;88;21040;-88
2022/02/19 00:24:15;;;;;;;25.52;15.48;;;;;;;1.61;86.98;99104.20;1612522;88;21628;-87
2022/02/19 00:26:41;;;;;;;27.02;16.17;;;;;;;1.59;87.08;99108.38;1612415;88;21006;-87
2022/02/19 00:29:08;;;;;;;22.87;13.98;;;;;;;1.57;87.16;99116.24;1598052;88;21091;-85
2022/02/19 00:31:34;;;;;;;20.52;15.95;;;;;;;1.57;87.29;99114.92;1621347;88;21165;-85
2022/02/19 00:34:02;;;;;;;23.60;13.88;;;;;;;1.56;87.37;99109.30;1592547;88;37609;-84
2022/02/19 00:36:30;;;;;;;21.90;12.20;;;;;;;1.57;87.44;99095.05;1609634;88;21013;-85
2022/02/19 00:38:56;;;;;;;25.57;12.50;;;;;;;1.56;87.50;99092.91;1612215;89;21010;-85
2022/02/19 00:41:23;;;;;;;16.12;11.60;;;;;;;1.58;87.50;99087.41;1612447;89;21006;-89
2022/02/19 00:43:51;;;;;;;21.00;11.80;;;;;;;1.60;87.59;99086.67;1581979;90;21195;-85
2022/02/19 00:46:17;;;;;;;16.15;11.12;;;;;;;1.62;87.53;99084.64;1584647;90;20971;-83
2022/02/19 00:48:44;;;;;;;15.68;11.05;;;;;;;1.61;87.47;99074.55;1591118;89;21064;-89
2022/02/19 00:51:11;;;;;;;17.55;10.10;;;;;;;1.61;87.47;99067.10;1580419;88;21151;-81
2022/02/19 00:53:38;;;;;;;16.90;10.82;;;;;;;1.60;87.44;99062.31;1617385;87;21536;-81
2022/02/19 00:56:06;;;;;;;17.15;10.93;;;;;;;1.57;87.39;99044.69;1626412;88;21131;-80
2022/02/19 00:58:34;;;;;;;18.42;11.33;;;;;;;1.57;87.44;99049.48;1623715;88;21075;-82
2022/02/19 01:01:00;;;;;;;19.25;10.40;;;;;;;1.56;87.47;99045.20;1602618;88;21628;-79
2022/02/19 01:03:29;;;;;;;24.27;11.35;;;;;;;1.47;87.66;99035.03;1625679;88;21068;-82
2022/02/19 01:05:56;;;;;;;15.90;10.95;;;;;;;1.34;88.06;99043.02;1626361;88;21559;-87
2022/02/19 01:08:23;;;;;;;17.50;11.65;;;;;;;1.34;88.33;99041.69;1626040;88;21228;-86
2022/02/19 01:10:49;;;;;;;17.75;11.85;;;;;;;1.32;88.36;99044.53;1602444;87;20967;-85
2022/02/19 01:13:17;;;;;;;17.40;12.75;;;;;;;1.33;88.49;99030.28;1618500;88;21095;-85
2022/02/19 01:15:43;;;;;;;18.77;11.93;;;;;;;1.34;88.64;99020.50;1625409;88;21034;-85
2022/02/19 01:18:10;;;;;;;17.73;12.63;;;;;;;1.36;88.71;99013.14;1623723;87;21056;-87
2022/02/19 01:20:40;;;;;;;21.05;13.20;;;;;;;1.36;88.87;99016.61;1565831;91;21506;-87
2022/02/19 01:23:05;;;;;;;14.65;9.80;;;;;;;1.30;88.93;99022.22;1625886;87;21045;-86
2022/02/19 01:25:33;;;;;;;12.53;8.93;;;;;;;1.29;89.00;99004.72;1626181;88;21065;-87
2022/02/19 01:27:59;;;;;;;15.88;9.08;;;;;;;1.27;89.12;99024.47;1626474;88;20998;-86
2022/02/19 01:30:27;;;;;;;12.68;7.50;;;;;;;1.28;89.28;98996.97;1626162;88;20985;-86
2022/02/19 01:32:55;;;;;;;12.80;8.98;;;;;;;1.33;89.32;99000.32;1627982;87;21098;-84
2022/02/19 01:35:22;;;;;;;15.83;8.20;;;;;;;1.30;89.22;99001.53;1638661;87;21094;-87
2022/02/19 01:37:49;;;;;;;13.50;8.38;;;;;;;1.25;89.16;98994.21;1624196;88;21589;-79
2022/02/19 01:40:15;;;;;;;16.87;8.48;;;;;;;1.20;89.26;98996.66;1602795;88;21127;-85
2022/02/19 01:42:44;;;;;;;11.10;7.87;;;;;;;1.16;89.43;98989.34;1625996;88;21067;-84
2022/02/19 01:45:14;;;;;;;12.68;7.90;;;;;;;1.15;89.52;98997.00;1626004;88;21127;-82
2022/02/19 01:47:42;;;;;;;13.75;7.50;;;;;;;1.15;89.52;98983.77;1626197;88;21510;-81
2022/02/19 01:50:10;;;;;;;10.58;7.40;;;;;;;1.11;89.59;98989.14;1618476;87;20969;-79
2022/02/19 01:52:42;;;;;;;16.95;8.98;;;;;;;1.12;89.73;98984.16;1623138;87;21803;-81
2022/02/19 01:55:10;;;;;;;;;;;;;;;1.12;89.75;98978.86;1616750;88;21560;-85
2022/02/19 01:57:39;;;;;;;8.93;6.60;;;;;;;1.15;89.79;98979.80;1585163;89;21141;-84
2022/02/19 02:00:19;;;;;;;12.60;8.23;;;;;;;1.15;89.81;98969.98;1568473;88;21080;-84
2022/02/19 02:02:52;;;;;;;14.87;8.53;;;;;;;1.15;89.78;98977.14;1610296;89;21059;-83
2022/02/19 02:05:25;;;;;;;14.45;8.28;;;;;;;1.15;89.84;98973.17;1615018;86;21056;-85
2022/02/19 02:07:51;;;;;;;12.87;7.40;;;;;;;1.15;89.76;98978.47;1627522;88;21679;-81
2022/02/19 02:10:18;;;;;;;11.90;7.65;;;;;;;1.17;89.77;98974.58;1613450;88;21850;-84
2022/02/19 02:12:45;;;;;;;14.25;7.85;;;;;;;1.20;89.76;98975.48;1626847;88;21075;-81
2022/02/19 02:15:29;;;;;;;14.73;8.53;;;;;;;1.21;89.68;98971.81;1610515;88;21085;-82
2022/02/19 02:18:09;;;;;;;10.73;7.40;;;;;;;1.22;89.56;98972.13;1611711;88;21121;-83
2022/02/19 02:20:36;;;;;;;11.63;7.50;;;;;;;1.23;89.53;98960.52;1624678;88;21766;-84
2022/02/19 02:23:05;;;;;;;15.15;8.18;;;;;;;1.25;89.47;98965.08;1600573;88;21361;-84
2022/02/19 02:25:32;;;;;;;10.80;8.10;;;;;;;1.29;89.37;98965.50;1625805;88;21138;-84
2022/02/19 02:27:59;;;;;;;17.12;9.00;;;;;;;1.29;89.23;98970.80;1629362;88;21501;-82
2022/02/19 02:30:28;;;;;;;12.68;7.90;;;;;;;1.30;89.11;98981.16;1616805;88;21324;-83
2022/02/19 02:32:56;;;;;;;17.20;7.25;;;;;;;1.33;89.08;98974.65;1601570;88;21036;-84
2022/02/19 02:35:23;;;;;;;10.93;7.90;;;;;;;1.34;88.86;98976.28;1624135;88;21091;-76
2022/02/19 02:37:49;;;;;;;12.50;7.47;;;;;;;1.35;88.77;98973.91;1585195;89;21059;-77
2022/02/19 02:40:16;;;;;;;13.03;7.10;;;;;;;1.39;88.66;98973.80;1611547;87;21077;-76
2022/02/19 02:42:43;;;;;;;17.85;8.78;;;;;;;1.45;88.45;98978.78;1620000;88;21072;-77
2022/02/19 02:45:13;;;;;;;10.90;7.83;;;;;;;1.49;88.00;98976.83;1611116;88;21665;-76
2022/02/19 02:47:43;;;;;;;13.55;6.85;;;;;;;1.57;87.76;98984.56;1587721;88;21133;-77
2022/02/19 02:50:11;;;;;;;14.07;7.72;;;;;;;1.62;87.49;98975.98;1630102;88;21126;-80
2022/02/19 02:52:40;;;;;;;10.30;6.42;;;;;;;1.67;87.18;98972.20;1631169;87;21553;-85
2022/02/19 02:55:09;;;;;;;12.70;6.37;;;;;;;1.70;86.71;98968.61;1600478;88;21639;-85
2022/02/19 02:57:36;;;;;;;10.80;8.33;;;;;;;1.78;86.30;98964.07;1612433;87;21016;-83
2022/02/19 03:00:06;;;;;;;11.48;6.70;;;;;;;1.85;85.92;98958.24;1596096;89;21117;-83
2022/02/19 03:02:34;;;;;;;8.83;6.08;;;;;;;1.90;85.71;98939.86;1609227;88;22212;-83
2022/02/19 03:05:03;;;;;;;15.65;7.05;;;;;;;1.93;85.06;98938.92;1607274;88;21635;-84
2022/02/19 03:07:30;;;;;;;12.33;6.35;;;;;;;1.98;84.69;98936.95;1595415;89;21039;-80
2022/02/19 03:09:57;;;;;;;10.30;6.75;;;;;;;2.02;84.47;98941.61;1612403;87;21038;-81
2022/02/19 03:12:24;;;;;;;7.47;6.42;;;;;;;2.07;84.25;98938.32;1612267;89;21172;-84
2022/02/19 03:14:51;;;;;;;10.32;6.37;;;;;;;2.10;83.98;98932.10;1612397;88;21585;-85
2022/02/19 03:17:19;;;;;;;11.43;6.08;;;;;;;2.15;83.61;98928.30;1617643;88;21061;-81
2022/02/19 03:19:46;;;;;;;8.70;5.95;;;;;;;2.19;83.33;98923.36;1608173;88;21566;-83
2022/02/19 03:22:31;;;;;;;7.95;5.87;;;;;;;2.22;83.17;98927.41;1608774;87;21033;-81
2022/02/19 03:24:59;;;;;;;9.13;5.78;;;;;;;2.24;82.64;98910.27;1607332;89;21161;-83
2022/02/19 03:27:27;;;;;;;12.25;6.33;;;;;;;2.27;82.64;98905.04;1612047;87;21529;-82
2022/02/19 03:29:57;;;;;;;13.45;6.58;;;;;;;2.29;82.05;98897.69;1631050;87;20933;-85
2022/02/19 03:32:24;;;;;;;15.68;6.83;;;;;;;2.28;82.02;98892.89;1632572;87;21100;-82
2022/02/19 03:34:50;;;;;;;11.93;5.58;;;;;;;2.28;82.12;98889.42;1632666;87;21077;-83
2022/02/19 03:37:17;;;;;;;6.58;4.50;;;;;;;2.29;81.90;98882.59;1632444;87;21551;-80
2022/02/19 03:39:45;;;;;;;9.45;5.60;;;;;;;2.27;81.55;98883.30;1632787;87;20973;-83
2022/02/19 03:42:11;;;;;;;7.30;5.40;;;;;;;2.26;81.50;98881.67;1587405;87;21051;-84
2022/02/19 03:44:38;;;;;;;9.30;5.70;;;;;;;2.28;81.21;98886.26;1615783;87;21001;-85
2022/02/19 03:47:07;;;;;;;13.00;6.20;;;;;;;2.31;81.20;98873.87;1609218;87;21647;-84
2022/02/19 03:49:51;;;;;;;11.05;6.12;;;;;;;2.36;81.05;98872.72;1613425;88;21089;-83
2022/02/19 03:52:18;;;;;;;11.40;6.35;;;;;;;2.43;80.82;98877.98;1611735;88;21705;-80
2022/02/19 03:54:46;;;;;;;9.15;4.85;;;;;;;2.45;80.20;98878.05;1581106;89;21059;-84
2022/02/19 03:57:13;;;;;;;9.00;5.05;;;;;;;2.48;79.87;98859.56;1592221;89;21076;-85
2022/02/19 03:59:40;;;;;;;11.73;5.45;;;;;;;2.53;79.72;98862.38;1580655;89;21067;-84
2022/02/19 04:02:07;;;;;;;8.98;5.20;;;;;;;2.57;79.47;98855.09;1604851;87;21142;-79
2022/02/19 04:04:34;;;;;;;10.20;4.75;;;;;;;2.60;78.89;98857.30;1585404;90;21076;-85
2022/02/19 04:07:01;;;;;;;6.67;4.85;;;;;;;2.62;78.58;98848.61;1579451;90;21157;-83
2022/02/19 04:09:35;;;;;;;9.73;5.97;;;;;;;2.66;78.44;98848.97;1557954;88;21638;-86
2022/02/19 04:12:03;;;;;;;8.53;5.08;;;;;;;2.72;78.11;98852.59;1598691;88;21033;-86
2022/02/19 04:14:32;;;;;;;7.78;5.00;;;;;;;2.74;77.55;98845.20;1559760;90;21110;-86
2022/02/19 04:17:00;;;;;;;6.33;4.87;;;;;;;2.76;77.35;98845.30;1559414;90;21106;-78
2022/02/19 04:19:28;;;;;;;8.63;5.92;;;;;;;2.79;77.14;98840.05;1580637;89;21062;-86
2022/02/19 04:21:54;;;;;;;9.03;4.95;;;;;;;2.81;76.54;98844.13;1587677;90;21063;-83
2022/02/19 04:24:23;;;;;;;10.10;4.50;;;;;;;2.86;76.26;98838.97;1588367;89;21511;-82
2022/02/19 04:26:51;;;;;;;6.65;4.22;;;;;;;2.92;75.96;98834.63;1587537;90;21169;-83
2022/02/19 04:29:18;;;;;;;7.12;4.33;;;;;;;2.95;75.43;98848.26;1559565;90;21540;-87
2022/02/19 04:31:46;;;;;;;9.60;5.20;;;;;;;3.02;75.25;98838.36;1589022;88;21667;-86
2022/02/19 04:34:14;;;;;;;9.80;5.37;;;;;;;3.06;75.01;98837.42;1587323;90;21532;-88
2022/02/19 04:36:41;;;;;;;9.48;4.35;;;;;;;3.11;74.53;98830.92;1588465;89;21091;-89
2022/02/19 04:39:08;;;;;;;7.60;3.70;;;;;;;3.15;74.07;98828.63;1561922;90;21101;-88
2022/02/19 04:41:36;;;;;;;10.08;5.62;;;;;;;3.19;73.89;98819.98;1589086;88;21115;-88
2022/02/19 04:44:02;;;;;;;6.90;4.12;;;;;;;3.23;73.42;98816.35;1560578;90;21074;-86
2022/02/19 04:46:31;;;;;;;10.53;4.90;;;;;;;3.25;73.06;98800.50;1557124;91;21093;-87
2022/02/19 04:48:58;;;;;;;9.40;4.97;;;;;;;3.30;72.29;98809.12;1563191;90;21142;-89
2022/02/19 04:51:24;;;;;;;11.55;5.00;;;;;;;3.29;71.59;98806.98;1586074;88;22157;-87
2022/02/19 04:53:52;;;;;;;9.28;5.97;;;;;;;3.35;71.72;98803.44;1598488;89;20956;-86
2022/02/19 04:56:19;;;;;;;7.92;4.90;;;;;;;3.37;71.37;98789.39;1605504;87;20999;-84
2022/02/19 04:58:47;;;;;;;12.58;4.75;;;;;;;3.42;70.95;98804.66;1604201;87;21095;-86
2022/02/19 05:01:14;;;;;;;11.10;4.97;;;;;;;3.45;70.82;98794.92;1599380;88;20999;-87
2022/02/19 05:03:58;;;;;;;;;;;;;;;3.47;70.59;98794.97;1617429;87;21571;-87
2022/02/19 05:06:38;;;;;;;9.68;4.65;;;;;;;3.50;70.13;98819.77;1597840;89;20431;-81
2022/02/19 05:09:05;;;;;;;10.38;4.67;;;;;;;3.52;69.79;98811.57;1584156;88;20971;-79
2022/02/19 05:11:33;;;;;;;8.85;4.78;;;;;;;3.56;70.04;98803.43;1607283;88;21147;-80
2022/02/19 05:14:02;;;;;;;10.93;5.22;;;;;;;3.59;69.76;98816.81;1586571;89;21063;-81
2022/02/19 05:16:29;;;;;;;4.97;4.40;;;;;;;3.61;69.42;98808.88;1606346;89;21118;-80
2022/02/19 05:19:03;;;;;;;8.08;3.85;;;;;;;3.62;68.97;98791.91;1605208;87;21092;-80
2022/02/19 05:21:32;;;;;;;11.33;4.58;;;;;;;3.63;69.18;98786.06;1598117;88;21061;-82
2022/02/19 05:24:00;;;;;;;5.33;4.12;;;;;;;3.60;69.09;98775.35;1618771;87;21119;-82
2022/02/19 05:26:29;;;;;;;9.75;4.58;;;;;;;3.62;69.00;98762.66;1632060;87;21115;-83
2022/02/19 05:28:56;;;;;;;10.63;4.05;;;;;;;3.64;68.79;98761.11;1593089;89;21096;-78
2022/02/19 05:31:22;;;;;;;7.80;4.70;;;;;;;3.68;68.75;98757.77;1608364;88;21548;-79
2022/02/19 05:33:56;;;;;;;7.95;5.25;;;;;;;3.68;68.42;98770.25;1586377;89;21035;-79
2022/02/19 05:36:23;;;;;;;5.12;4.60;;;;;;;3.68;68.37;98771.06;1586362;89;21016;-79
2022/02/19 05:38:51;;;;;;;7.72;4.00;;;;;;;3.69;68.17;98746.09;1587893;87;21555;-80
2022/02/19 05:41:18;;;;;;;6.55;3.98;;;;;;;3.75;68.19;98747.01;1608121;88;21158;-78
2022/02/19 05:43:45;;;;;;;7.10;4.00;;;;;;;3.74;67.76;98750.19;1610206;88;21066;-81
2022/02/19 05:46:15;;;;;;;7.50;4.15;;;;;;;3.77;67.58;98743.61;1607159;88;21116;-79
2022/02/19 05:48:42;;;;;;;6.85;5.60;;;;;;;3.81;67.52;98757.55;1614869;88;21544;-84
2022/02/19 05:51:10;;;;;;;9.38;4.62;;;;;;;3.86;67.30;98736.40;1608790;88;21627;-81
2022/02/19 05:53:38;;;;;;;7.55;4.83;;;;;;;3.91;66.93;98751.67;1607063;89;21088;-81
2022/02/19 05:56:06;;;;;;;7.50;4.20;;;;;;;3.94;66.82;98756.00;1622045;88;21001;-82
2022/02/19 05:58:32;;;;;;;7.53;3.95;;;;;;;3.97;66.66;98764.05;1630602;87;21014;-83
2022/02/19 06:01:04;;;;;;;4.58;3.15;;;;;;;4.00;66.36;98756.94;1627799;87;21084;-82
2022/02/19 06:03:30;;;;;;;4.75;3.75;;;;;;;4.02;66.09;98765.51;1615006;88;21112;-82
2022/02/19 06:05:56;;;;;;;7.65;4.80;;;;;;;4.04;65.68;98763.41;1630793;87;21100;-80
2022/02/19 06:08:25;;;;;;;6.40;3.67;;;;;;;4.06;65.76;98773.83;1607110;88;21029;-83
2022/02/19 06:10:52;;;;;;;6.92;3.95;;;;;;;4.08;65.79;98774.39;1611731;87;21079;-85
2022/02/19 06:13:19;;;;;;;9.23;4.33;;;;;;;4.10;65.90;98774.47;1584791;89;21115;-85
2022/02/19 06:15:47;;;;;;;7.33;4.25;;;;;;;4.12;66.20;98792.88;1598910;88;21050;-82
2022/02/19 06:18:22;;;;;;;5.67;3.90;;;;;;;4.13;66.74;98787.30;1629965;88;21187;-86
2022/02/19 06:20:49;;;;;;;14.40;4.53;;;;;;;4.14;67.61;98846.66;1630271;87;21584;-83
2022/02/19 06:23:17;;;;;;;7.90;4.17;;;;;;;4.12;69.39;98807.51;1633584;87;20966;-83
2022/02/19 06:25:45;;;;;;;5.90;4.17;;;;;;;4.08;70.09;98823.09;1611300;87;20963;-81
2022/02/19 06:28:12;;;;;;;7.95;4.72;;;;;;;4.01;71.74;98825.59;1581066;89;21150;-80
2022/02/19 06:30:40;;;;;;;4.85;4.17;;;;;;;3.96;72.60;98822.28;1610037;89;21204;-79
2022/02/19 06:33:10;;;;;;;8.28;4.67;;;;;;;3.90;74.11;98812.55;1633561;87;21013;-77
2022/02/19 06:35:36;;;;;;;8.13;4.47;;;;;;;3.77;75.90;98823.39;1636500;87;21058;-85
2022/02/19 06:38:04;;;;;;;13.43;7.37;;;;;;;3.67;76.98;98821.80;1626420;88;21097;-85
2022/02/19 06:40:31;;;;;;;8.53;4.87;;;;;;;3.56;78.49;98811.41;1584206;89;21091;-79
2022/02/19 06:42:59;;;;;;;9.75;5.37;;;;;;;3.46;79.76;98805.82;1610584;88;21289;-83
2022/02/19 06:45:27;;;;;;;5.17;4.17;;;;;;;3.41;80.45;98793.72;1610347;87;21061;-84
2022/02/19 06:47:55;;;;;;;5.65;3.75;;;;;;;3.32;81.93;98775.15;1585607;89;21082;-83
2022/02/19 06:50:23;;;;;;;6.03;3.72;;;;;;;3.26;82.46;98770.76;1585275;89;21150;-87
2022/02/19 06:52:51;;;;;;;7.15;3.30;;;;;;;3.20;83.09;98743.23;1627266;87;21078;-85
2022/02/19 06:55:19;;;;;;;8.60;3.90;;;;;;;3.17;83.96;98728.24;1629315;87;21197;-84
2022/02/19 06:57:48;;;;;;;7.42;4.83;;;;;;;3.10;84.74;98716.91;1613824;87;21656;-86
2022/02/19 07:00:16;;;;;;;7.42;4.87;;;;;;;3.08;84.89;98732.55;1607845;88;20984;-86
2022/02/19 07:02:46;;;;;;;8.43;4.53;;;;;;;3.13;84.79;98733.20;1595732;87;21039;-84
2022/02/19 07:05:13;;;;;;;9.25;5.22;;;;;;;3.14;84.52;98699.48;1638792;87;21085;-81
2022/02/19 07:07:48;;;;;;;7.37;5.10;;;;;;;3.16;84.34;98698.76;1612650;88;22392;-80
2022/02/19 07:10:15;;;;;;;3.60;2.87;;;;;;;3.18;83.16;98692.69;1623627;87;21126;-81
2022/02/19 07:12:42;;;;;;;10.78;5.33;;;;;;;3.21;82.58;98689.59;1638771;87;21035;-82
2022/02/19 07:15:09;;;;;;;7.55;4.22;;;;;;;3.25;81.93;98682.78;1622549;87;21118;-84
2022/02/19 07:17:52;;;;;;;7.92;4.45;;;;;;;3.31;81.26;98667.27;1615595;87;21062;-83
2022/02/19 07:20:22;;;;;;;7.20;4.20;;;;;;;3.39;79.34;98658.95;1584633;88;21112;-84
2022/02/19 07:22:50;;;;;;;6.08;4.45;;;;;;;3.48;77.68;98637.64;1614161;88;20998;-85
2022/02/19 07:25:20;;;;;;;5.60;4.28;;;;;;;3.58;75.40;98654.35;1614105;87;21055;-85
2022/02/19 07:27:47;;;;;;;4.85;4.10;;;;;;;3.68;75.27;98659.39;1636109;87;21495;-86
2022/02/19 07:30:19;;;;;;;9.30;3.60;;;;;;;3.76;72.85;98659.04;1632262;87;21053;-85
2022/02/19 07:32:47;;;;;;;4.35;3.12;;;;;;;3.85;71.88;98626.25;1588305;88;21775;-84
2022/02/19 07:35:16;;;;;;;6.42;3.40;;;;;;;3.92;70.99;98617.12;1582888;88;21600;-81
2022/02/19 07:37:42;;;;;;;9.28;4.87;;;;;;;3.99;69.83;98630.28;1628172;87;21019;-83
2022/02/19 07:40:10;;;;;;;5.78;3.70;;;;;;;4.07;69.24;98628.62;1602219;87;21049;-78
2022/02/19 07:42:38;;;;;;;8.15;3.60;;;;;;;4.15;68.83;98650.86;1591543;89;20979;-83
2022/02/19 07:45:08;;;;;;;4.90;3.92;;;;;;;4.23;67.37;98639.03;1611728;88;21098;-82
2022/02/19 07:47:46;;;;;;;5.62;3.52;;;;;;;4.29;67.23;98639.44;1531041;91;21137;-79
2022/02/19 07:59:01;;;;;;;6.37;3.27;;;;;;;4.47;64.34;98626.48;1606535;88;21305;-90
2022/02/19 08:01:27;;;;;;;5.12;3.95;;;;;;;4.48;63.98;98595.64;1603418;88;21629;-79
2022/02/19 08:03:55;;;;;;;6.03;3.98;;;;;;;4.51;64.06;98625.77;1601568;89;21071;-82
2022/02/19 08:06:22;;;;;;;4.80;3.95;;;;;;;4.55;63.85;98634.11;1570656;89;21071;-81
2022/02/19 08:08:50;;;;;;;9.28;3.62;;;;;;;4.58;63.86;98657.59;1544634;91;21058;-80
2022/02/19 08:11:22;;;;;;;5.50;4.10;;;;;;;4.60;63.81;98647.52;1536209;92;21594;-79
2022/02/19 08:13:49;;;;;;;6.55;3.77;;;;;;;4.62;63.63;98678.18;1561158;91;21021;-80
2022/02/19 08:16:16;;;;;;;10.85;4.87;;;;;;;4.65;63.54;98692.34;1561123;91;21595;-81
2022/02/19 08:18:43;;;;;;;8.55;5.10;;;;;;;4.69;63.24;98687.38;1561706;90;21756;-78
2022/02/19 08:21:09;;;;;;;6.00;3.75;;;;;;;4.71;63.46;98683.42;1536830;91;21165;-79
2022/02/19 08:23:37;;;;;;;9.20;4.15;;;;;;;4.74;63.36;98686.96;1564358;91;21199;-76
2022/02/19 08:26:04;;;;;;;5.55;4.55;;;;;;;4.76;63.92;98687.52;1528827;92;21121;-76
2022/02/19 08:28:32;;;;;;;8.50;4.70;;;;;;;4.77;63.74;98693.13;1614117;88;21008;-75
2022/02/19 08:30:59;;;;;;;8.68;4.37;;;;;;;4.78;63.93;98678.78;1613736;89;21067;-77
2022/02/19 08:33:26;;;;;;;8.03;5.58;;;;;;;4.80;64.08;98661.20;1613488;89;21035;-77
2022/02/19 08:35:52;;;;;;;7.22;5.25;;;;;;;4.79;64.24;98655.10;1613774;89;21139;-75
2022/02/19 08:38:19;;;;;;;6.55;5.20;;;;;;;4.79;64.63;98663.09;1613675;89;21071;-75
2022/02/19 08:40:45;;;;;;;7.25;5.25;;;;;;;4.81;64.80;98679.62;1613693;89;21106;-76
2022/02/19 08:43:12;;;;;;;8.85;6.22;;;;;;;4.84;64.68;98682.35;1613767;89;20940;-78
2022/02/19 08:45:41;;;;;;;17.55;9.13;;;;;;;4.86;65.02;98649.61;1583860;90;21849;-77
2022/02/19 08:48:11;;;;;;;9.93;5.28;;;;;;;4.88;64.78;98664.03;1585404;90;21200;-77
2022/02/19 08:50:39;;;;;;;8.25;5.08;;;;;;;4.89;64.76;98629.17;1585476;90;21025;-77
2022/02/19 08:53:06;;;;;;;11.48;6.08;;;;;;;4.90;64.88;98636.61;1580736;89;21042;-81
2022/02/19 08:55:32;;;;;;;6.87;3.70;;;;;;;4.91;64.53;98634.24;1617452;88;21514;-78
2022/02/19 08:57:59;;;;;;;9.85;4.33;;;;;;;4.93;64.39;98642.81;1601946;88;21017;-76
2022/02/19 09:00:25;;;;;;;9.75;6.40;;;;;;;4.97;64.70;98630.63;1626230;88;21051;-78
2022/02/19 09:02:52;;;;;;;11.22;5.47;;;;;;;4.99;64.66;98625.33;1623647;88;21000;-79
2022/02/19 09:05:20;;;;;;;8.03;5.12;;;;;;;5.01;64.34;98622.44;1626157;88;21115;-78
2022/02/19 09:07:46;;;;;;;9.25;6.00;;;;;;;5.01;64.58;98632.58;1626391;87;21589;-78
2022/02/19 09:10:15;;;;;;;10.35;5.72;;;;;;;5.03;64.61;98607.84;1626040;88;21043;-80
2022/02/19 09:12:49;;;;;;;9.28;6.17;;;;;;;5.07;64.66;98630.81;1625961;88;21008;-79
2022/02/19 09:15:14;;;;;;;13.60;5.05;;;;;;;5.08;64.30;98618.59;1625827;87;21087;-79
2022/02/19 09:17:42;;;;;;;7.40;5.70;;;;;;;5.10;64.28;98645.79;1593075;89;21024;-79
2022/02/19 09:20:10;;;;;;;9.90;5.72;;;;;;;5.12;64.30;98641.04;1588478;89;21065;-80
2022/02/19 09:22:38;;;;;;;4.25;3.72;;;;;;;5.14;64.31;98586.95;1585320;90;20984;-79
2022/02/19 09:25:06;;;;;;;10.75;4.42;;;;;;;5.16;63.98;98661.34;1592368;90;21132;-78
2022/02/19 09:27:34;;;;;;;9.25;5.90;;;;;;;5.18;64.19;98646.72;1591789;89;21052;-81
2022/02/19 09:30:01;;;;;;;15.15;6.25;;;;;;;5.21;64.19;98636.12;1598478;88;21103;-78
2022/02/19 09:32:28;;;;;;;11.97;6.28;;;;;;;5.22;63.94;98644.41;1602400;88;21601;-81
2022/02/19 09:34:54;;;;;;;7.85;5.42;;;;;;;5.23;64.02;98643.33;1626532;88;21096;-79
2022/02/19 09:37:21;;;;;;;11.33;6.08;;;;;;;5.24;63.95;98640.95;1625839;88;21126;-78
2022/02/19 09:39:47;;;;;;;12.95;6.25;;;;;;;5.25;63.91;98641.25;1626155;88;21530;-80
2022/02/19 09:42:14;;;;;;;11.97;6.78;;;;;;;5.28;64.09;98670.88;1619479;88;21061;-80
2022/02/19 09:44:41;;;;;;;14.15;6.05;;;;;;;5.28;63.77;98649.56;1601286;88;21177;-78
2022/02/19 09:47:07;;;;;;;9.28;6.20;;;;;;;5.31;64.05;98672.80;1626377;88;21072;-78
2022/02/19 09:49:35;;;;;;;9.60;6.45;;;;;;;5.32;63.74;98643.77;1602945;88;21145;-79
2022/02/19 09:52:02;;;;;;;10.08;5.50;;;;;;;5.31;63.71;98620.30;1626256;87;21545;-80
2022/02/19 09:54:29;;;;;;;11.35;5.60;;;;;;;5.34;63.84;98606.47;1621275;88;20992;-78
2022/02/19 09:56:55;;;;;;;11.85;6.92;;;;;;;5.36;63.82;98595.58;1623856;88;21078;-78
2022/02/19 09:59:23;;;;;;;7.37;5.47;;;;;;;5.37;63.81;98589.98;1629347;88;21035;-79
2022/02/19 10:02:04;;;;;;;9.90;5.17;;;;;;;5.40;63.54;98540.72;1598247;88;21138;-78
2022/02/19 10:04:31;;;;;;;12.82;7.08;;;;;;;5.40;63.74;98542.05;1617366;87;21035;-74
2022/02/19 10:07:11;;;;;;;7.05;5.58;;;;;;;5.41;63.85;98578.33;1613736;87;21095;-80
2022/02/19 10:09:41;;;;;;;12.05;7.65;;;;;;;5.40;63.97;98570.04;1608583;88;21067;-75
2022/02/19 10:12:12;;;;;;;10.45;7.03;;;;;;;5.43;64.12;98525.03;1622677;87;21160;-75
2022/02/19 10:14:39;;;;;;;12.40;8.05;;;;;;;5.45;64.09;98571.45;1640099;87;21139;-78
2022/02/19 10:17:17;;;;;;;14.80;8.70;;;;;;;5.46;64.18;98581.07;1640609;87;20992;-71
2022/02/19 10:19:54;;;;;;;20.68;8.90;;;;;;;5.47;64.00;98592.80;1625569;87;21039;-74
2022/02/19 10:22:26;;;;;;;11.43;6.90;;;;;;;5.48;64.17;98581.09;1584748;90;21524;-71
2022/02/19 10:24:56;;;;;;;15.20;7.65;;;;;;;5.51;64.16;98603.81;1562895;91;21073;-72
2022/02/19 10:27:22;;;;;;;11.08;7.20;;;;;;;5.51;64.24;98600.63;1585032;89;21154;-73
2022/02/19 10:29:55;;;;;;;11.22;7.53;;;;;;;5.52;64.34;98614.22;1588876;89;21090;-72
2022/02/19 10:32:25;;;;;;;11.70;7.25;;;;;;;5.54;64.40;98637.46;1561651;90;21180;-71
2022/02/19 10:35:01;;;;;;;10.75;7.08;;;;;;;5.57;64.45;98601.48;1560803;90;21090;-72
2022/02/19 10:37:28;;;;;;;13.32;7.15;;;;;;;5.62;64.55;98591.70;1560836;90;21619;-72
2022/02/19 10:39:58;;;;;;;12.50;8.00;;;;;;;5.68;64.37;98620.59;1591850;89;21835;-72
2022/02/19 10:42:33;;;;;;;11.70;6.78;;;;;;;5.75;64.48;98603.91;1616706;87;21023;-71
2022/02/19 10:45:09;;;;;;;7.80;5.40;;;;;;;5.84;64.39;98606.96;1640514;87;21015;-72
2022/02/19 10:47:35;;;;;;;7.47;5.37;;;;;;;5.92;64.14;98598.03;1609485;88;21003;-73
2022/02/19 10:50:09;;;;;;;7.37;5.08;;;;;;;5.97;64.20;98611.45;1615948;88;21038;-74
2022/02/19 10:52:39;;;;;;;10.60;6.17;;;;;;;6.05;64.05;98612.34;1629519;87;21149;-79
2022/02/19 10:55:14;;;;;;;18.17;6.72;;;;;;;6.10;63.97;98623.61;1612193;88;21045;-79
2022/02/19 10:57:45;;;;;;;10.25;5.92;;;;;;;6.13;63.80;98621.28;1604553;89;21092;-77
2022/02/19 11:00:17;;;;;;;9.85;5.85;;;;;;;6.18;63.62;98663.77;1603945;88;21519;-78
2022/02/19 11:02:49;;;;;;;8.05;5.85;;;;;;;6.21;63.55;98623.22;1586584;88;21081;-77
2022/02/19 11:05:17;;;;;;;9.95;5.37;;;;;;;6.25;63.73;98614.47;1630629;87;22216;-79
2022/02/19 11:07:45;;;;;;;13.13;6.28;;;;;;;6.29;63.71;98625.45;1608387;87;21082;-79
2022/02/19 11:10:15;;;;;;;11.73;5.90;;;;;;;6.30;63.61;98622.55;1581299;89;21039;-81
2022/02/19 11:12:42;;;;;;;8.98;5.75;;;;;;;6.31;63.69;98638.86;1606393;87;21103;-89
2022/02/19 11:15:09;;;;;;;15.08;7.22;;;;;;;6.33;63.69;98627.38;1609084;87;20988;-80
2022/02/19 11:17:36;;;;;;;9.53;6.53;;;;;;;6.37;63.74;98619.70;1585688;89;21580;-76
2022/02/19 11:20:09;;;;;;;11.78;5.78;;;;;;;6.37;63.80;98609.83;1579988;90;21051;-75
2022/02/19 11:22:39;;;;;;;13.15;5.95;;;;;;;6.41;63.87;98610.95;1575194;91;21070;-77
2022/02/19 11:25:12;;;;;;;11.57;6.17;;;;;;;6.44;63.70;98598.41;1590450;89;21285;-80
2022/02/19 11:27:50;;;;;;;10.15;6.67;;;;;;;6.47;63.78;98615.30;1569988;87;21090;-83
2022/02/19 11:30:17;;;;;;;7.78;5.15;;;;;;;6.49;63.82;98623.84;1623617;87;21192;-84
2022/02/19 11:32:43;;;;;;;12.78;6.60;;;;;;;6.51;63.71;98624.95;1616273;87;21153;-87
2022/02/19 11:35:10;;;;;;;10.70;5.47;;;;;;;6.53;63.83;98608.94;1589773;87;21153;-90
2022/02/19 11:37:45;;;;;;;15.40;5.53;;;;;;;6.55;63.91;98615.38;1625680;87;21132;-86
2022/02/19 11:40:13;;;;;;;15.88;5.87;;;;;;;6.57;63.91;98603.89;1611500;87;21055;-85
2022/02/19 11:42:50;;;;;;;7.87;5.45;;;;;;;6.59;63.97;98600.45;1631023;87;21213;-85
2022/02/19 11:45:30;;;;;;;14.07;8.40;;;;;;;6.61;63.84;98593.53;1616512;87;21561;-88
2022/02/19 11:48:12;;;;;;;8.88;5.65;;;;;;;6.63;63.90;98627.47;1623490;87;21053;-81
2022/02/19 11:50:42;;;;;;;10.23;6.22;;;;;;;6.67;63.84;98628.58;1623100;87;21119;-82
2022/02/19 11:53:17;;;;;;;13.00;6.85;;;;;;;6.69;63.89;98599.23;1623794;87;21612;-80